createdAt,value
2018-03-19T00:00:06.610Z,-5.562
2018-03-19T00:01:03.873Z,-5.562
2018-03-19T00:02:03.515Z,-5.562
2018-03-19T00:03:03.223Z,-5.5
2018-03-19T00:04:03.825Z,-5.5
2018-03-19T00:05:03.881Z,-5.5
2018-03-19T00:06:03.313Z,-5.625
2018-03-19T00:07:03.874Z,-5.625
2018-03-19T00:08:03.585Z,-5.437
2018-03-19T00:09:03.704Z,-5.562
2018-03-19T00:10:03.049Z,-5.562
2018-03-19T00:11:03.970Z,-5.562
2018-03-19T00:12:03.633Z,-5.625
2018-03-19T00:13:03.152Z,-5.687
2018-03-19T00:14:03.725Z,-5.687
2018-03-19T00:15:03.408Z,-5.687
2018-03-19T00:16:04.064Z,-5.687
2018-03-19T00:17:03.858Z,-5.75
2018-03-19T00:18:03.505Z,-5.812
2018-03-19T00:19:04.112Z,-5.812
2018-03-19T00:20:03.720Z,-5.812
2018-03-19T00:21:03.587Z,-5.687
2018-03-19T00:22:03.326Z,-5.625
2018-03-19T00:23:03.938Z,-5.75
2018-03-19T00:24:03.855Z,-5.937
2018-03-19T00:25:04.079Z,-5.937
2018-03-19T00:26:03.679Z,-5.875
2018-03-19T00:27:03.325Z,-5.875
2018-03-19T00:28:04.049Z,-5.75
2018-03-19T00:29:03.530Z,-5.75
2018-03-19T00:30:03.309Z,-5.812
2018-03-19T00:31:03.977Z,-6
2018-03-19T00:32:03.596Z,-6.062
2018-03-19T00:33:03.626Z,-6.062
2018-03-19T00:34:03.290Z,-5.937
2018-03-19T00:35:04.113Z,-5.812
2018-03-19T00:36:03.715Z,-5.875
2018-03-19T00:37:03.245Z,-5.937
2018-03-19T00:38:03.871Z,-6
2018-03-19T00:39:03.442Z,-5.937
2018-03-19T00:40:03.558Z,-5.875
2018-03-19T00:41:03.426Z,-5.875
2018-03-19T00:42:03.947Z,-5.875
2018-03-19T00:43:03.553Z,-5.937
2018-03-19T00:44:03.348Z,-6.062
2018-03-19T00:45:04.064Z,-6.125
2018-03-19T00:46:04.522Z,-6.125
2018-03-19T00:47:04.058Z,-6.187
2018-03-19T00:48:03.541Z,-6.187
2018-03-19T00:49:03.369Z,-6.25
2018-03-19T00:50:03.754Z,-6.312
2018-03-19T00:51:03.341Z,-6.312
2018-03-19T00:52:03.861Z,-6.375
2018-03-19T00:53:03.392Z,-6.437
2018-03-19T00:54:03.980Z,-6.437
2018-03-19T00:55:04.658Z,-6.437
2018-03-19T00:56:03.186Z,-6.375
2018-03-19T00:57:03.751Z,-6.312
2018-03-19T00:58:03.768Z,-6.312
2018-03-19T00:59:03.224Z,-6.312
2018-03-19T01:00:04.289Z,-6.437
2018-03-19T01:01:03.396Z,-6.375
2018-03-19T01:02:03.117Z,-6.375
2018-03-19T01:03:03.596Z,-6.375
2018-03-19T01:04:03.419Z,-6.5
2018-03-19T01:05:03.906Z,-6.562
2018-03-19T01:06:03.522Z,-6.562
2018-03-19T01:07:03.151Z,-6.562
2018-03-19T01:08:03.774Z,-6.562
2018-03-19T01:09:03.686Z,-6.625
2018-03-19T01:10:03.466Z,-6.687
2018-03-19T01:11:03.044Z,-6.687
2018-03-19T01:12:03.515Z,-6.625
2018-03-19T01:13:03.137Z,-6.625
2018-03-19T01:14:03.838Z,-6.562
2018-03-19T01:15:03.549Z,-6.625
2018-03-19T01:16:03.173Z,-6.625
2018-03-19T01:17:04.002Z,-6.5
2018-03-19T01:18:03.265Z,-6.625
2018-03-19T01:19:03.899Z,-6.687
2018-03-19T01:20:03.921Z,-6.625
2018-03-19T01:21:03.485Z,-6.812
2018-03-19T01:22:03.566Z,-6.812
2018-03-19T01:23:03.255Z,-6.812
2018-03-19T01:24:03.801Z,-6.687
2018-03-19T01:25:03.332Z,-6.687
2018-03-19T01:26:03.858Z,-6.625
2018-03-19T01:27:03.427Z,-6.5
2018-03-19T01:28:03.965Z,-6.625
2018-03-19T01:29:03.532Z,-6.687
2018-03-19T01:30:03.283Z,-6.625
2018-03-19T01:31:03.953Z,-6.687
2018-03-19T01:32:03.451Z,-6.687
2018-03-19T01:33:03.022Z,-6.812
2018-03-19T01:34:03.451Z,-6.875
2018-03-19T01:35:04.052Z,-6.937
2018-03-19T01:36:03.524Z,-6.937
2018-03-19T01:37:03.117Z,-7
2018-03-19T01:38:03.690Z,-6.937
2018-03-19T01:39:03.210Z,-6.937
2018-03-19T01:40:03.805Z,-7
2018-03-19T01:41:03.236Z,-7
2018-03-19T01:42:03.847Z,-7.125
2018-03-19T01:43:03.444Z,-7.25
2018-03-19T01:44:03.918Z,-7.375
2018-03-19T01:45:03.894Z,-7.312
2018-03-19T01:46:03.290Z,-7.375
2018-03-19T01:47:03.742Z,-7.25
2018-03-19T01:48:03.286Z,-7.25
2018-03-19T01:49:03.882Z,-7.375
2018-03-19T01:50:03.544Z,-7.375
2018-03-19T01:51:03.174Z,-7.375
2018-03-19T01:52:03.670Z,-7.312
2018-03-19T01:53:03.767Z,-7.375
2018-03-19T01:54:03.295Z,-7.25
2018-03-19T01:55:03.832Z,-7.187
2018-03-19T01:56:03.499Z,-7.25
2018-03-19T01:57:03.369Z,-7.25
2018-03-19T01:58:03.881Z,-7.312
2018-03-19T01:59:03.381Z,-7.375
2018-03-19T02:00:04.423Z,-7.437
2018-03-19T02:01:04.363Z,-7.5
2018-03-19T02:02:04.754Z,-7.562
2018-03-19T02:03:03.360Z,-7.562
2018-03-19T02:04:03.888Z,-7.625
2018-03-19T02:05:03.498Z,-7.625
2018-03-19T02:06:04.077Z,-7.687
2018-03-19T02:07:03.868Z,-7.625
2018-03-19T02:08:03.666Z,-7.687
2018-03-19T02:09:03.167Z,-7.687
2018-03-19T02:10:03.662Z,-7.625
2018-03-19T02:11:04.155Z,-7.625
2018-03-19T02:12:03.552Z,-7.75
2018-03-19T02:13:03.184Z,-7.75
2018-03-19T02:14:03.878Z,-7.687
2018-03-19T02:15:03.991Z,-7.687
2018-03-19T02:16:03.501Z,-7.75
2018-03-19T02:17:04.173Z,-7.75
2018-03-19T02:18:03.591Z,-7.75
2018-03-19T02:19:03.345Z,-7.812
2018-03-19T02:20:03.774Z,-7.875
2018-03-19T02:21:03.622Z,-7.937
2018-03-19T02:22:03.152Z,-7.937
2018-03-19T02:23:03.703Z,-7.937
2018-03-19T02:24:03.409Z,-7.937
2018-03-19T02:25:04.011Z,-8
2018-03-19T02:26:03.588Z,-8
2018-03-19T02:27:03.274Z,-8
2018-03-19T02:28:04.727Z,-8.062
2018-03-19T02:29:03.231Z,-8.125
2018-03-19T02:30:03.974Z,-8.062
2018-03-19T02:31:03.574Z,-8.187
2018-03-19T02:32:03.083Z,-8.312
2018-03-19T02:33:03.618Z,-8.312
2018-03-19T02:34:03.266Z,-8.25
2018-03-19T02:35:03.856Z,-8.312
2018-03-19T02:36:03.349Z,-8.375
2018-03-19T02:37:03.777Z,-8.437
2018-03-19T02:38:03.270Z,-8.5
2018-03-19T02:39:03.891Z,-8.562
2018-03-19T02:40:03.809Z,-8.5
2018-03-19T02:41:03.646Z,-8.437
2018-03-19T02:42:03.216Z,-8.5
2018-03-19T02:43:03.744Z,-8.5
2018-03-19T02:44:03.200Z,-8.5
2018-03-19T02:45:03.912Z,-8.437
2018-03-19T02:46:03.350Z,-8.375
2018-03-19T02:47:03.843Z,-8.437
2018-03-19T02:48:03.378Z,-8.437
2018-03-19T02:49:03.766Z,-8.5
2018-03-19T02:50:03.307Z,-8.437
2018-03-19T02:51:03.815Z,-8.5
2018-03-19T02:52:03.302Z,-8.437
2018-03-19T02:53:03.839Z,-8.312
2018-03-19T02:54:03.318Z,-8.312
2018-03-19T02:55:03.821Z,-8.312
2018-03-19T02:56:03.244Z,-8.437
2018-03-19T02:57:03.773Z,-8.375
2018-03-19T02:58:03.217Z,-8.5
2018-03-19T02:59:03.821Z,-8.437
2018-03-19T03:00:04.328Z,-8.375
2018-03-19T03:01:03.792Z,-8.25
2018-03-19T03:02:03.371Z,-8.312
2018-03-19T03:03:03.846Z,-8.375
2018-03-19T03:04:03.361Z,-8.375
2018-03-19T03:05:04.039Z,-8.312
2018-03-19T03:06:03.677Z,-8.187
2018-03-19T03:07:03.167Z,-8.187
2018-03-19T03:08:03.767Z,-8.187
2018-03-19T03:09:03.588Z,-8.25
2018-03-19T03:10:04.057Z,-8.25
2018-03-19T03:11:03.453Z,-8.25
2018-03-19T03:12:03.968Z,-8.187
2018-03-19T03:13:04.447Z,-8.25
2018-03-19T03:14:03.837Z,-8.25
2018-03-19T03:15:03.524Z,-8.187
2018-03-19T03:16:03.900Z,-8.125
2018-03-19T03:17:03.546Z,-8.125
2018-03-19T03:18:03.351Z,-8.125
2018-03-19T03:19:03.753Z,-8.25
2018-03-19T03:20:03.262Z,-8.187
2018-03-19T03:21:03.139Z,-8.062
2018-03-19T03:22:03.414Z,-8.125
2018-03-19T03:23:03.937Z,-8.25
2018-03-19T03:24:03.495Z,-8.312
2018-03-19T03:25:03.171Z,-8.437
2018-03-19T03:26:03.635Z,-8.437
2018-03-19T03:27:03.200Z,-8.5
2018-03-19T03:28:03.672Z,-8.375
2018-03-19T03:29:03.213Z,-8.312
2018-03-19T03:30:03.833Z,-8.312
2018-03-19T03:31:03.451Z,-8.375
2018-03-19T03:32:03.447Z,-8.125
2018-03-19T03:33:03.913Z,-8.187
2018-03-19T03:34:03.327Z,-8.187
2018-03-19T03:35:03.727Z,-8.062
2018-03-19T03:36:03.461Z,-8
2018-03-19T03:37:03.728Z,-7.937
2018-03-19T03:38:03.501Z,-8
2018-03-19T03:39:03.856Z,-8.062
2018-03-19T03:40:03.231Z,-8.062
2018-03-19T03:41:03.731Z,-8.125
2018-03-19T03:42:03.275Z,-8
2018-03-19T03:43:03.325Z,-8.062
2018-03-19T03:44:03.838Z,-8.062
2018-03-19T03:45:03.510Z,-8.062
2018-03-19T03:46:03.875Z,-8.125
2018-03-19T03:47:03.585Z,-8.187
2018-03-19T03:48:03.056Z,-8.125
2018-03-19T03:49:03.560Z,-8.125
2018-03-19T03:50:03.159Z,-8.062
2018-03-19T03:51:03.607Z,-8
2018-03-19T03:52:02.994Z,-8
2018-03-19T03:53:03.664Z,-8.125
2018-03-19T03:54:03.094Z,-8.062
2018-03-19T03:55:04.471Z,-8.062
2018-03-19T03:56:03.360Z,-8.187
2018-03-19T03:57:03.765Z,-8.25
2018-03-19T03:58:03.349Z,-8.187
2018-03-19T03:59:03.763Z,-8.062
2018-03-19T04:00:03.514Z,-7.937
2018-03-19T04:01:04.745Z,-7.937
2018-03-19T04:02:03.414Z,-7.875
2018-03-19T04:03:04.436Z,-7.875
2018-03-19T04:04:03.732Z,-7.875
2018-03-19T04:05:03.568Z,-7.812
2018-03-19T04:06:04.054Z,-7.875
2018-03-19T04:07:03.467Z,-7.937
2018-03-19T04:08:03.103Z,-8.062
2018-03-19T04:09:03.725Z,-8.062
2018-03-19T04:10:03.344Z,-8.062
2018-03-19T04:11:03.774Z,-8.187
2018-03-19T04:12:03.227Z,-8.25
2018-03-19T04:13:03.758Z,-8.187
2018-03-19T04:14:04.375Z,-8.062
2018-03-19T04:15:04.069Z,-8
2018-03-19T04:16:03.410Z,-8
2018-03-19T04:17:03.687Z,-8
2018-03-19T04:18:04.217Z,-7.937
2018-03-19T04:19:03.505Z,-7.625
2018-03-19T04:20:03.914Z,-7.812
2018-03-19T04:21:03.338Z,-7.75
2018-03-19T04:22:03.797Z,-7.687
2018-03-19T04:23:03.366Z,-7.75
2018-03-19T04:24:04.033Z,-7.812
2018-03-19T04:25:03.686Z,-7.812
2018-03-19T04:26:03.384Z,-7.937
2018-03-19T04:27:03.702Z,-8
2018-03-19T04:28:03.689Z,-7.937
2018-03-19T04:29:03.311Z,-7.875
2018-03-19T04:30:04.204Z,-7.937
2018-03-19T04:31:03.684Z,-8
2018-03-19T04:32:03.680Z,-8.125
2018-03-19T04:33:03.335Z,-8.125
2018-03-19T04:34:03.904Z,-8.062
2018-03-19T04:35:03.611Z,-8.062
2018-03-19T04:36:03.327Z,-8.062
2018-03-19T04:37:03.780Z,-8.062
2018-03-19T04:38:03.470Z,-8.062
2018-03-19T04:39:03.074Z,-8.062
2018-03-19T04:40:03.606Z,-8.187
2018-03-19T04:41:03.069Z,-8.187
2018-03-19T04:42:03.967Z,-8.25
2018-03-19T04:43:04.478Z,-8.187
2018-03-19T04:44:03.933Z,-8.312
2018-03-19T04:45:03.884Z,-8.437
2018-03-19T04:46:03.570Z,-8.5
2018-03-19T04:47:03.129Z,-8.5
2018-03-19T04:48:03.615Z,-8.625
2018-03-19T04:49:04.001Z,-8.562
2018-03-19T04:50:03.721Z,-8.5
2018-03-19T04:51:03.157Z,-8.5
2018-03-19T04:52:04.291Z,-8.375
2018-03-19T04:53:03.637Z,-8.375
2018-03-19T04:54:03.574Z,-8.375
2018-03-19T04:55:03.916Z,-8.437
2018-03-19T04:56:03.410Z,-8.5
2018-03-19T04:57:03.932Z,-8.625
2018-03-19T04:58:04.916Z,-8.625
2018-03-19T04:59:03.431Z,-8.562
2018-03-19T05:00:04.115Z,-8.562
2018-03-19T05:01:03.498Z,-8.625
2018-03-19T05:02:03.950Z,-8.687
2018-03-19T05:03:03.490Z,-8.687
2018-03-19T05:04:04.957Z,-8.687
2018-03-19T05:05:03.370Z,-8.625
2018-03-19T05:06:03.954Z,-8.625
2018-03-19T05:07:03.478Z,-8.687
2018-03-19T05:08:04.072Z,-8.625
2018-03-19T05:10:03.544Z,-8.687
2018-03-19T05:11:03.082Z,-8.625
2018-03-19T05:12:03.331Z,-8.437
2018-03-19T05:13:03.832Z,-8.437
2018-03-19T05:14:03.371Z,-8.437
2018-03-19T05:15:04.009Z,-8.437
2018-03-19T05:16:03.663Z,-8.437
2018-03-19T05:17:03.253Z,-8.437
2018-03-19T05:18:03.971Z,-8.437
2018-03-19T05:19:03.357Z,-8.5
2018-03-19T05:20:04.069Z,-8.562
2018-03-19T05:21:03.330Z,-8.437
2018-03-19T05:22:03.900Z,-8.312
2018-03-19T05:23:03.390Z,-8.375
2018-03-19T05:24:03.853Z,-8.25
2018-03-19T05:25:03.963Z,-8.25
2018-03-19T05:26:03.192Z,-8.25
2018-03-19T05:27:03.609Z,-8.187
2018-03-19T05:28:03.163Z,-8.125
2018-03-19T05:29:03.585Z,-8.062
2018-03-19T05:30:04.340Z,-7.937
2018-03-19T05:31:03.812Z,-7.875
2018-03-19T05:32:03.327Z,-7.812
2018-03-19T05:33:03.924Z,-7.687
2018-03-19T05:34:03.411Z,-7.625
2018-03-19T05:35:04.831Z,-7.562
2018-03-19T05:36:03.272Z,-7.437
2018-03-19T05:37:03.717Z,-7.437
2018-03-19T05:38:04.195Z,-7.375
2018-03-19T05:39:03.623Z,-7.312
2018-03-19T05:40:03.499Z,-7.187
2018-03-19T05:41:03.880Z,-7.125
2018-03-19T05:42:03.399Z,-7
2018-03-19T05:43:03.863Z,-6.937
2018-03-19T05:44:03.394Z,-6.812
2018-03-19T05:45:04.557Z,-6.687
2018-03-19T05:46:04.056Z,-6.625
2018-03-19T05:47:03.628Z,-6.562
2018-03-19T05:48:03.364Z,-6.437
2018-03-19T05:49:03.818Z,-6.25
2018-03-19T05:50:03.366Z,-6.125
2018-03-19T05:51:03.817Z,-6.062
2018-03-19T05:52:03.263Z,-6
2018-03-19T05:53:03.793Z,-5.937
2018-03-19T05:54:03.370Z,-5.875
2018-03-19T05:55:03.974Z,-5.75
2018-03-19T05:56:03.344Z,-5.687
2018-03-19T05:57:04.756Z,-5.5
2018-03-19T05:58:03.345Z,-5.375
2018-03-19T05:59:03.732Z,-5.312
2018-03-19T06:00:03.769Z,-5.312
2018-03-19T06:01:03.296Z,-5.25
2018-03-19T06:02:03.882Z,-5.187
2018-03-19T06:03:03.517Z,-5.062
2018-03-19T06:04:03.250Z,-5
2018-03-19T06:05:03.899Z,-4.937
2018-03-19T06:06:03.433Z,-4.812
2018-03-19T06:07:03.904Z,-4.812
2018-03-19T06:08:03.504Z,-4.687
2018-03-19T06:09:03.246Z,-4.625
2018-03-19T06:10:03.755Z,-4.5
2018-03-19T06:11:03.313Z,-4.437
2018-03-19T06:12:03.953Z,-4.312
2018-03-19T06:13:03.524Z,-4.187
2018-03-19T06:14:03.113Z,-4.125
2018-03-19T06:15:03.969Z,-4.062
2018-03-19T06:16:03.414Z,-3.937
2018-03-19T06:17:04.644Z,-3.937
2018-03-19T06:18:03.901Z,-3.937
2018-03-19T06:19:03.413Z,-3.812
2018-03-19T06:20:04.253Z,-3.687
2018-03-19T06:21:03.584Z,-3.625
2018-03-19T06:22:03.045Z,-3.5
2018-03-19T06:23:03.505Z,-3.437
2018-03-19T06:24:03.150Z,-3.312
2018-03-19T06:25:03.812Z,-3.25
2018-03-19T06:26:03.425Z,-3.125
2018-03-19T06:27:03.936Z,-2.937
2018-03-19T06:28:04.322Z,-2.937
2018-03-19T06:29:03.672Z,-2.937
2018-03-19T06:30:04.055Z,-2.937
2018-03-19T06:31:03.683Z,-2.875
2018-03-19T06:32:03.237Z,-2.812
2018-03-19T06:33:03.722Z,-2.875
2018-03-19T06:34:03.496Z,-2.937
2018-03-19T06:35:03.097Z,-2.875
2018-03-19T06:36:03.605Z,-2.875
2018-03-19T06:37:03.242Z,-2.812
2018-03-19T06:38:03.786Z,-2.875
2018-03-19T06:39:03.282Z,-2.812
2018-03-19T06:40:04.658Z,-2.75
2018-03-19T06:41:03.083Z,-2.625
2018-03-19T06:42:03.648Z,-2.562
2018-03-19T06:43:03.207Z,-2.562
2018-03-19T06:44:03.682Z,-2.5
2018-03-19T06:45:03.537Z,-2.375
2018-03-19T06:46:04.018Z,-2.312
2018-03-19T06:47:03.519Z,-2.25
2018-03-19T06:48:03.957Z,-2.125
2018-03-19T06:49:03.445Z,-2.187
2018-03-19T06:50:03.199Z,-2.187
2018-03-19T06:51:03.336Z,-2.062
2018-03-19T06:52:03.647Z,-1.937
2018-03-19T06:53:04.042Z,-1.937
2018-03-19T06:54:04.429Z,-1.875
2018-03-19T06:55:04.537Z,-1.875
2018-03-19T06:56:04.025Z,-1.812
2018-03-19T06:57:04.384Z,-1.75
2018-03-19T06:58:03.762Z,-1.75
2018-03-19T06:59:03.339Z,-1.687
2018-03-19T07:00:03.586Z,-1.687
2018-03-19T07:01:03.533Z,-1.562
2018-03-19T07:02:03.146Z,-1.5
2018-03-19T07:03:03.807Z,-1.375
2018-03-19T07:04:03.317Z,-1.375
2018-03-19T07:05:03.902Z,-1.375
2018-03-19T07:06:03.317Z,-1.25
2018-03-19T07:07:03.779Z,-1.312
2018-03-19T07:08:03.932Z,-1.187
2018-03-19T07:09:03.483Z,-1.062
2018-03-19T07:10:04.607Z,-1.062
2018-03-19T07:11:03.130Z,-1.125
2018-03-19T07:12:03.540Z,-1
2018-03-19T07:13:03.264Z,-1.062
2018-03-19T07:14:04.923Z,-1.125
2018-03-19T07:15:03.602Z,-1
2018-03-19T07:16:03.897Z,-0.875
2018-03-19T07:17:03.475Z,-0.75
2018-03-19T07:18:03.544Z,-0.75
2018-03-19T07:19:03.189Z,-0.75
2018-03-19T07:20:03.830Z,-0.875
2018-03-19T07:21:03.724Z,-1.062
2018-03-19T07:22:03.353Z,-1.062
2018-03-19T07:23:03.904Z,-1
2018-03-19T07:24:03.371Z,-1.062
2018-03-19T07:25:04.098Z,-1.062
2018-03-19T07:26:03.935Z,-1.062
2018-03-19T07:27:03.422Z,-1
2018-03-19T07:28:03.317Z,-1
2018-03-19T07:29:04.021Z,-1
2018-03-19T07:30:03.801Z,-0.812
2018-03-19T07:31:04.070Z,-0.625
2018-03-19T07:32:03.754Z,-0.437
2018-03-19T07:33:03.687Z,-0.5
2018-03-19T07:34:03.412Z,-0.25
2018-03-19T07:35:04.168Z,-0.25
2018-03-19T07:36:03.714Z,-0.187
2018-03-19T07:37:03.531Z,-0.062
2018-03-19T07:38:04.105Z,-0.187
2018-03-19T07:39:04.003Z,-0.125
2018-03-19T07:40:03.736Z,0.062
2018-03-19T07:41:03.476Z,0.062
2018-03-19T07:42:03.170Z,0.062
2018-03-19T07:43:03.764Z,0.062
2018-03-19T07:44:03.133Z,-0.062
2018-03-19T07:45:03.866Z,-0.125
2018-03-19T07:46:03.414Z,-0.062
2018-03-19T07:47:03.914Z,-0.187
2018-03-19T07:48:03.565Z,-0.25
2018-03-19T07:49:04.005Z,-0.062
2018-03-19T07:50:03.807Z,-0.062
2018-03-19T07:51:04.284Z,-0.062
2018-03-19T07:52:04.715Z,-0.062
2018-03-19T07:53:03.078Z,-0.125
2018-03-19T07:54:03.618Z,-0.187
2018-03-19T07:55:03.263Z,0.062
2018-03-19T07:56:03.928Z,0.187
2018-03-19T07:57:03.397Z,0.312
2018-03-19T07:58:03.930Z,0.312
2018-03-19T07:59:03.568Z,0.312
2018-03-19T08:00:04.191Z,0.312
2018-03-19T08:01:03.560Z,0.375
2018-03-19T08:02:03.950Z,0.187
2018-03-19T08:03:03.607Z,0.25
2018-03-19T08:04:03.142Z,0.312
2018-03-19T08:05:03.843Z,0.25
2018-03-19T08:06:03.450Z,0.187
2018-03-19T08:07:03.914Z,0.187
2018-03-19T08:08:03.428Z,0.125
2018-03-19T08:09:03.614Z,0.187
2018-03-19T08:10:03.396Z,0.062
2018-03-19T08:11:03.821Z,0.125
2018-03-19T08:12:03.376Z,0.25
2018-03-19T08:13:03.873Z,0.375
2018-03-19T08:14:03.484Z,0.187
2018-03-19T08:15:03.193Z,0.187
2018-03-19T08:16:03.691Z,0.187
2018-03-19T08:17:03.409Z,0.187
2018-03-19T08:18:03.916Z,0.187
2018-03-19T08:19:03.434Z,0.187
2018-03-19T08:20:03.929Z,0.312
2018-03-19T08:21:03.984Z,0.437
2018-03-19T08:22:03.482Z,0.437
2018-03-19T08:23:03.936Z,0.5
2018-03-19T08:24:03.508Z,0.562
2018-03-19T08:25:03.953Z,0.687
2018-03-19T08:26:03.483Z,0.687
2018-03-19T08:27:03.094Z,0.75
2018-03-19T08:28:04.192Z,0.562
2018-03-19T08:29:03.771Z,0.437
2018-03-19T08:30:03.850Z,0.437
2018-03-19T08:31:03.934Z,0.25
2018-03-19T08:32:03.654Z,0.187
2018-03-19T08:33:03.215Z,0.062
2018-03-19T08:34:04.219Z,0.062
2018-03-19T08:35:03.761Z,0
2018-03-19T08:36:03.392Z,-0.125
2018-03-19T08:37:04.010Z,-0.125
2018-03-19T08:38:03.509Z,-0.187
2018-03-19T08:39:03.353Z,-0.375
2018-03-19T08:40:04.278Z,-0.437
2018-03-19T08:41:03.226Z,-0.5
2018-03-19T08:42:03.642Z,-0.562
2018-03-19T08:43:03.175Z,-0.625
2018-03-19T08:44:03.719Z,-0.562
2018-03-19T08:45:03.520Z,-0.625
2018-03-19T08:46:03.484Z,-0.625
2018-03-19T08:47:03.097Z,-0.562
2018-03-19T08:48:03.651Z,-0.437
2018-03-19T08:49:03.097Z,-0.375
2018-03-19T08:50:03.679Z,-0.312
2018-03-19T08:51:03.333Z,-0.187
2018-03-19T08:52:05.841Z,-0.062
2018-03-19T08:53:03.252Z,0.062
2018-03-19T08:54:03.754Z,0.125
2018-03-19T08:55:03.228Z,0.062
2018-03-19T08:56:04.706Z,0.062
2018-03-19T08:57:03.222Z,0
2018-03-19T08:58:03.747Z,0.187
2018-03-19T08:59:03.283Z,0.25
2018-03-19T09:00:04.135Z,0.312
2018-03-19T09:01:03.876Z,0.5
2018-03-19T09:02:03.587Z,0.687
2018-03-19T09:03:03.193Z,0.75
2018-03-19T09:04:03.733Z,0.5
2018-03-19T09:05:03.644Z,0.5
2018-03-19T09:06:03.117Z,0.5
2018-03-19T09:07:03.591Z,0.437
2018-03-19T09:08:03.414Z,0.75
2018-03-19T09:09:04.014Z,0.75
2018-03-19T09:10:03.353Z,0.562
2018-03-19T09:11:03.240Z,0.25
2018-03-19T09:12:03.634Z,0.187
2018-03-19T09:13:03.223Z,0.062
2018-03-19T09:14:03.790Z,0
2018-03-19T09:15:03.497Z,-0.062
2018-03-19T09:16:04.022Z,-0.187
2018-03-19T09:17:03.678Z,-0.125
2018-03-19T09:18:03.594Z,-0.25
2018-03-19T09:19:04.093Z,-0.312
2018-03-19T09:20:03.512Z,-0.312
2018-03-19T09:21:03.133Z,-0.25
2018-03-19T09:22:03.656Z,-0.25
2018-03-19T09:23:03.338Z,-0.187
2018-03-19T09:24:03.505Z,-0.312
2018-03-19T09:25:03.808Z,-0.312
2018-03-19T09:26:04.144Z,-0.375
2018-03-19T09:27:03.457Z,-0.375
2018-03-19T09:28:03.102Z,-0.375
2018-03-19T09:29:03.523Z,-0.437
2018-03-19T09:30:04.150Z,-0.437
2018-03-19T09:31:03.907Z,-0.5
2018-03-19T09:32:03.759Z,-0.5
2018-03-19T09:33:03.314Z,-0.375
2018-03-19T09:34:03.739Z,-0.375
2018-03-19T09:35:03.313Z,-0.437
2018-03-19T09:36:03.890Z,-0.437
2018-03-19T09:37:03.445Z,-0.5
2018-03-19T09:38:03.840Z,-0.5
2018-03-19T09:39:03.486Z,-0.5
2018-03-19T09:40:03.504Z,-0.437
2018-03-19T09:41:03.293Z,-0.437
2018-03-19T09:42:03.672Z,-0.375
2018-03-19T09:43:03.183Z,-0.375
2018-03-19T09:44:03.580Z,-0.312
2018-03-19T09:45:03.294Z,-0.312
2018-03-19T09:46:03.811Z,-0.25
2018-03-19T09:47:03.276Z,-0.312
2018-03-19T09:48:03.951Z,-0.312
2018-03-19T09:49:03.487Z,-0.375
2018-03-19T09:50:03.974Z,-0.437
2018-03-19T09:51:04.762Z,-0.375
2018-03-19T09:52:03.409Z,-0.375
2018-03-19T09:53:03.787Z,-0.312
2018-03-19T09:54:04.317Z,-0.25
2018-03-19T09:55:03.645Z,-0.375
2018-03-19T09:56:03.059Z,-0.375
2018-03-19T09:57:03.618Z,-0.312
2018-03-19T09:58:03.271Z,-0.187
2018-03-19T09:59:03.919Z,0
2018-03-19T10:00:03.815Z,0.062
2018-03-19T10:01:03.292Z,0.062
2018-03-19T10:02:03.257Z,0.062
2018-03-19T10:03:03.709Z,-0.062
2018-03-19T10:04:03.244Z,0.062
2018-03-19T10:05:04.449Z,0.25
2018-03-19T10:06:03.837Z,0.312
2018-03-19T10:07:03.432Z,0.375
2018-03-19T10:08:04.048Z,0.375
2018-03-19T10:09:03.824Z,0.25
2018-03-19T10:10:04.208Z,0.25
2018-03-19T10:11:03.672Z,0.312
2018-03-19T10:12:03.119Z,0.25
2018-03-19T10:13:03.645Z,0.25
2018-03-19T10:14:04.057Z,0.312
2018-03-19T10:15:03.613Z,0.437
2018-03-19T10:16:03.770Z,0.5
2018-03-19T10:17:03.447Z,0.375
2018-03-19T10:18:03.949Z,0.437
2018-03-19T10:19:03.526Z,0.437
2018-03-19T10:20:03.016Z,0.375
2018-03-19T10:21:03.635Z,0.375
2018-03-19T10:22:03.297Z,0.312
2018-03-19T10:23:03.758Z,0.25
2018-03-19T10:24:03.252Z,0.375
2018-03-19T10:25:03.798Z,0.375
2018-03-19T10:26:03.363Z,0.437
2018-03-19T10:27:03.842Z,0.5
2018-03-19T10:28:03.425Z,0.375
2018-03-19T10:29:03.882Z,0.5
2018-03-19T10:30:03.575Z,0.437
2018-03-19T10:31:03.299Z,0.5
2018-03-19T10:32:03.826Z,0.562
2018-03-19T10:33:03.382Z,0.5
2018-03-19T10:34:03.916Z,0.562
2018-03-19T10:35:03.488Z,0.562
2018-03-19T10:36:03.999Z,0.562
2018-03-19T10:37:03.544Z,0.437
2018-03-19T10:38:03.151Z,0.437
2018-03-19T10:39:03.910Z,0.437
2018-03-19T10:40:03.424Z,0.375
2018-03-19T10:41:03.308Z,0.375
2018-03-19T10:42:03.846Z,0.437
2018-03-19T10:43:03.834Z,0.5
2018-03-19T10:44:03.281Z,0.5
2018-03-19T10:45:03.851Z,0.5
2018-03-19T10:46:03.284Z,0.625
2018-03-19T10:47:03.839Z,0.625
2018-03-19T10:48:03.375Z,0.625
2018-03-19T10:49:03.998Z,0.75
2018-03-19T10:50:03.529Z,0.812
2018-03-19T10:51:04.014Z,0.687
2018-03-19T10:52:03.421Z,0.625
2018-03-19T10:53:03.855Z,0.5
2018-03-19T10:54:03.268Z,0.437
2018-03-19T10:55:03.795Z,0.312
2018-03-19T10:56:03.580Z,0.437
2018-03-19T10:57:03.100Z,0.437
2018-03-19T10:58:03.701Z,0.437
2018-03-19T10:59:04.135Z,0.5
2018-03-19T11:00:03.841Z,0.5
2018-03-19T11:01:03.209Z,0.562
2018-03-19T11:02:03.774Z,0.5
2018-03-19T11:03:03.386Z,0.437
2018-03-19T11:04:03.913Z,0.375
2018-03-19T11:05:03.431Z,0.5
2018-03-19T11:06:03.912Z,0.5
2018-03-19T11:07:03.407Z,0.5
2018-03-19T11:08:03.791Z,0.562
2018-03-19T11:09:03.526Z,0.562
2018-03-19T11:10:03.802Z,0.5
2018-03-19T11:11:03.332Z,0.5
2018-03-19T11:12:04.853Z,0.5
2018-03-19T11:13:03.449Z,0.5
2018-03-19T11:14:03.937Z,0.5
2018-03-19T11:15:03.551Z,0.437
2018-03-19T11:16:03.984Z,0.562
2018-03-19T11:17:03.734Z,0.625
2018-03-19T11:18:03.351Z,0.687
2018-03-19T11:19:03.683Z,0.625
2018-03-19T11:20:03.436Z,0.687
2018-03-19T11:21:03.718Z,0.687
2018-03-19T11:22:03.498Z,0.625
2018-03-19T11:23:03.892Z,0.625
2018-03-19T11:24:03.289Z,0.687
2018-03-19T11:25:03.799Z,0.687
2018-03-19T11:26:03.295Z,0.562
2018-03-19T11:27:03.859Z,0.562
2018-03-19T11:28:03.584Z,0.5
2018-03-19T11:29:03.118Z,0.562
2018-03-19T11:30:03.774Z,0.625
2018-03-19T11:31:03.374Z,0.625
2018-03-19T11:32:03.117Z,0.75
2018-03-19T11:33:03.515Z,0.75
2018-03-19T11:34:03.992Z,0.812
2018-03-19T11:35:03.543Z,0.812
2018-03-19T11:36:04.059Z,0.75
2018-03-19T11:37:03.647Z,0.875
2018-03-19T11:38:03.318Z,0.937
2018-03-19T11:39:03.879Z,0.812
2018-03-19T11:40:03.523Z,0.75
2018-03-19T11:41:03.884Z,0.875
2018-03-19T11:42:03.613Z,0.812
2018-03-19T11:43:04.631Z,0.812
2018-03-19T11:44:03.257Z,0.812
2018-03-19T11:45:04.089Z,0.875
2018-03-19T11:46:03.515Z,0.875
2018-03-19T11:47:03.199Z,0.875
2018-03-19T11:48:03.680Z,0.937
2018-03-19T11:49:03.333Z,0.937
2018-03-19T11:50:04.334Z,0.937
2018-03-19T11:51:04.909Z,0.937
2018-03-19T11:52:03.381Z,0.75
2018-03-19T11:53:03.822Z,0.75
2018-03-19T11:54:03.353Z,0.812
2018-03-19T11:55:03.794Z,0.937
2018-03-19T11:56:03.477Z,0.812
2018-03-19T11:57:03.953Z,0.75
2018-03-19T11:58:03.572Z,0.812
2018-03-19T11:59:03.204Z,0.812
2018-03-19T12:00:03.847Z,0.812
2018-03-19T12:01:03.572Z,0.812
2018-03-19T12:02:03.207Z,1
2018-03-19T12:03:03.667Z,1.062
2018-03-19T12:04:03.354Z,1
2018-03-19T12:05:03.795Z,0.937
2018-03-19T12:06:03.232Z,0.937
2018-03-19T12:07:03.804Z,0.937
2018-03-19T12:08:03.318Z,0.875
2018-03-19T12:09:04.248Z,1
2018-03-19T12:10:03.598Z,1
2018-03-19T12:11:03.328Z,1
2018-03-19T12:12:03.828Z,1.062
2018-03-19T12:13:03.181Z,1
2018-03-19T12:14:03.703Z,1
2018-03-19T12:15:03.511Z,0.937
2018-03-19T12:16:03.958Z,1
2018-03-19T12:17:03.773Z,1
2018-03-19T12:18:03.420Z,1.062
2018-03-19T12:19:03.913Z,1.125
2018-03-19T12:20:03.367Z,1.25
2018-03-19T12:21:03.128Z,1.25
2018-03-19T12:22:03.548Z,1.187
2018-03-19T12:23:03.376Z,1.125
2018-03-19T12:24:03.880Z,1.125
2018-03-19T12:25:03.377Z,1.062
2018-03-19T12:26:03.906Z,1.062
2018-03-19T12:27:03.275Z,1.062
2018-03-19T12:28:03.414Z,1
2018-03-19T12:29:03.366Z,1.062
2018-03-19T12:30:04.389Z,1.125
2018-03-19T12:31:04.292Z,1.187
2018-03-19T12:32:03.670Z,1.25
2018-03-19T12:33:03.236Z,1.312
2018-03-19T12:34:03.833Z,1.25
2018-03-19T12:35:03.264Z,1.187
2018-03-19T12:36:04.141Z,1.187
2018-03-19T12:37:03.545Z,1.25
2018-03-19T12:38:03.088Z,1.375
2018-03-19T12:39:03.214Z,1.375
2018-03-19T12:40:04.052Z,1.312
2018-03-19T12:41:03.494Z,1.375
2018-03-19T12:42:04.030Z,1.375
2018-03-19T12:43:03.569Z,1.187
2018-03-19T12:44:03.996Z,1.125
2018-03-19T12:45:03.413Z,1.125
2018-03-19T12:46:03.963Z,1.125
2018-03-19T12:47:03.516Z,1.25
2018-03-19T12:48:03.986Z,1.187